sensor_id;sensor_type;location;lat;lon;timestamp;temperature;humidity
21176;DHT22;10746;50.178;8.186;2023-03-01T00:01:00;-2.20;99.90
21176;DHT22;10746;50.178;8.186;2023-03-01T00:03:29;-2.20;99.90
21176;DHT22;10746;50.178;8.186;2023-03-01T00:05:55;-2.20;99.90
21176;DHT22;10746;50.178;8.186;2023-03-01T00:08:22;-2.30;99.90
21176;DHT22;10746;50.178;8.186;2023-03-01T00:10:49;-2.30;99.90
21176;DHT22;10746;50.178;8.186;2023-03-01T00:13:16;-2.40;99.90
21176;DHT22;10746;50.178;8.186;2023-03-01T00:15:42;-2.40;99.90
21176;DHT22;10746;50.178;8.186;2023-03-01T00:18:09;-2.40;99.90
21176;DHT22;10746;50.178;8.186;2023-03-01T00:20:37;-2.50;99.90
21176;DHT22;10746;50.178;8.186;2023-03-01T00:23:04;-2.40;99.90
21176;DHT22;10746;50.178;8.186;2023-03-01T00:25:31;-2.40;99.90
21176;DHT22;10746;50.178;8.186;2023-03-01T00:27:58;-2.60;99.90
21176;DHT22;10746;50.178;8.186;2023-03-01T00:30:24;-2.60;99.90
21176;DHT22;10746;50.178;8.186;2023-03-01T00:32:51;-2.50;99.90
21176;DHT22;10746;50.178;8.186;2023-03-01T00:35:18;-2.50;99.90
21176;DHT22;10746;50.178;8.186;2023-03-01T00:37:46;-2.50;99.90
21176;DHT22;10746;50.178;8.186;2023-03-01T00:40:13;-2.50;99.90
21176;DHT22;10746;50.178;8.186;2023-03-01T00:42:41;-2.60;99.90
21176;DHT22;10746;50.178;8.186;2023-03-01T00:45:09;-2.60;99.90
21176;DHT22;10746;50.178;8.186;2023-03-01T00:47:36;-2.50;99.90
21176;DHT22;10746;50.178;8.186;2023-03-01T00:50:03;-2.50;99.90
21176;DHT22;10746;50.178;8.186;2023-03-01T00:52:29;-2.50;99.90
21176;DHT22;10746;50.178;8.186;2023-03-01T00:54:58;-2.50;99.90
21176;DHT22;10746;50.178;8.186;2023-03-01T00:57:24;-2.50;99.90
21176;DHT22;10746;50.178;8.186;2023-03-01T00:59:51;-2.50;99.90
21176;DHT22;10746;50.178;8.186;2023-03-01T01:02:18;-2.50;99.90
21176;DHT22;10746;50.178;8.186;2023-03-01T01:04:45;-2.50;99.90
21176;DHT22;10746;50.178;8.186;2023-03-01T01:07:12;-2.50;99.90
21176;DHT22;10746;50.178;8.186;2023-03-01T01:09:39;-2.60;99.90
21176;DHT22;10746;50.178;8.186;2023-03-01T01:12:08;-2.60;99.90
21176;DHT22;10746;50.178;8.186;2023-03-01T01:14:35;-2.70;99.90
21176;DHT22;10746;50.178;8.186;2023-03-01T01:17:02;-2.70;99.90
21176;DHT22;10746;50.178;8.186;2023-03-01T01:19:29;-2.80;99.90
21176;DHT22;10746;50.178;8.186;2023-03-01T01:21:55;-2.80;99.90
21176;DHT22;10746;50.178;8.186;2023-03-01T01:24:22;-2.70;99.90
21176;DHT22;10746;50.178;8.186;2023-03-01T01:26:49;-2.70;99.90
21176;DHT22;10746;50.178;8.186;2023-03-01T01:29:17;-2.70;99.90
21176;DHT22;10746;50.178;8.186;2023-03-01T01:31:44;-2.60;99.90
21176;DHT22;10746;50.178;8.186;2023-03-01T01:34:14;-2.60;99.90
21176;DHT22;10746;50.178;8.186;2023-03-01T01:36:41;-2.60;99.90
21176;DHT22;10746;50.178;8.186;2023-03-01T01:39:08;-2.60;99.90
21176;DHT22;10746;50.178;8.186;2023-03-01T01:41:39;-2.60;99.90
21176;DHT22;10746;50.178;8.186;2023-03-01T01:44:15;-2.60;99.90
21176;DHT22;10746;50.178;8.186;2023-03-01T01:46:46;-2.60;99.90
21176;DHT22;10746;50.178;8.186;2023-03-01T01:49:25;-2.60;99.90
21176;DHT22;10746;50.178;8.186;2023-03-01T01:52:00;-2.60;99.90
21176;DHT22;10746;50.178;8.186;2023-03-01T01:54:34;-2.60;99.90
21176;DHT22;10746;50.178;8.186;2023-03-01T01:57:07;-2.60;99.90
21176;DHT22;10746;50.178;8.186;2023-03-01T01:59:34;-2.60;99.90
21176;DHT22;10746;50.178;8.186;2023-03-01T02:02:03;-2.60;99.90
21176;DHT22;10746;50.178;8.186;2023-03-01T02:04:31;-2.50;99.90
21176;DHT22;10746;50.178;8.186;2023-03-01T02:07:03;-2.50;99.90
21176;DHT22;10746;50.178;8.186;2023-03-01T02:09:32;-2.60;99.90
21176;DHT22;10746;50.178;8.186;2023-03-01T02:12:00;-2.60;99.90
21176;DHT22;10746;50.178;8.186;2023-03-01T02:14:27;-2.60;99.90
21176;DHT22;10746;50.178;8.186;2023-03-01T02:16:54;-2.60;99.90
21176;DHT22;10746;50.178;8.186;2023-03-01T02:19:31;-2.60;99.90
21176;DHT22;10746;50.178;8.186;2023-03-01T02:22:10;-2.60;99.90
21176;DHT22;10746;50.178;8.186;2023-03-01T02:24:43;-2.60;99.90
21176;DHT22;10746;50.178;8.186;2023-03-01T02:27:13;-2.50;99.90
21176;DHT22;10746;50.178;8.186;2023-03-01T02:29:41;-2.50;99.90
21176;DHT22;10746;50.178;8.186;2023-03-01T02:32:11;-2.40;99.90
21176;DHT22;10746;50.178;8.186;2023-03-01T02:34:38;-2.50;99.90
21176;DHT22;10746;50.178;8.186;2023-03-01T02:37:08;-2.50;99.90
21176;DHT22;10746;50.178;8.186;2023-03-01T02:39:39;-2.50;99.90
21176;DHT22;10746;50.178;8.186;2023-03-01T02:42:11;-2.50;99.90
21176;DHT22;10746;50.178;8.186;2023-03-01T02:44:38;-2.50;99.90
21176;DHT22;10746;50.178;8.186;2023-03-01T02:47:07;-2.50;99.90
21176;DHT22;10746;50.178;8.186;2023-03-01T02:49:35;-2.50;99.90
21176;DHT22;10746;50.178;8.186;2023-03-01T02:52:23;-2.50;99.90
21176;DHT22;10746;50.178;8.186;2023-03-01T02:54:58;-2.50;99.90
21176;DHT22;10746;50.178;8.186;2023-03-01T02:57:27;-2.40;99.90
21176;DHT22;10746;50.178;8.186;2023-03-01T02:59:55;-2.50;99.90
21176;DHT22;10746;50.178;8.186;2023-03-01T03:02:26;-2.50;99.90
21176;DHT22;10746;50.178;8.186;2023-03-01T03:05:04;-2.60;99.90
21176;DHT22;10746;50.178;8.186;2023-03-01T03:07:32;-2.60;99.90
21176;DHT22;10746;50.178;8.186;2023-03-01T03:10:00;-2.60;99.90
21176;DHT22;10746;50.178;8.186;2023-03-01T03:12:26;-2.60;99.90
21176;DHT22;10746;50.178;8.186;2023-03-01T03:14:53;-2.60;99.90
21176;DHT22;10746;50.178;8.186;2023-03-01T03:17:20;-2.60;99.90
21176;DHT22;10746;50.178;8.186;2023-03-01T03:19:48;-2.60;99.90
21176;DHT22;10746;50.178;8.186;2023-03-01T03:22:15;-2.60;99.90
21176;DHT22;10746;50.178;8.186;2023-03-01T03:24:42;-2.60;99.90
21176;DHT22;10746;50.178;8.186;2023-03-01T03:27:08;-2.60;99.90
21176;DHT22;10746;50.178;8.186;2023-03-01T03:29:35;-2.70;99.90
21176;DHT22;10746;50.178;8.186;2023-03-01T03:32:02;-2.80;99.90
21176;DHT22;10746;50.178;8.186;2023-03-01T03:34:29;-2.90;99.90
21176;DHT22;10746;50.178;8.186;2023-03-01T03:36:57;-2.90;99.90
21176;DHT22;10746;50.178;8.186;2023-03-01T03:39:25;-2.90;99.90
21176;DHT22;10746;50.178;8.186;2023-03-01T03:41:53;-2.90;99.90
21176;DHT22;10746;50.178;8.186;2023-03-01T03:44:20;-2.90;99.90
21176;DHT22;10746;50.178;8.186;2023-03-01T03:46:47;-2.90;99.90
21176;DHT22;10746;50.178;8.186;2023-03-01T03:49:13;-3.00;99.90
21176;DHT22;10746;50.178;8.186;2023-03-01T03:51:40;-3.00;99.90
21176;DHT22;10746;50.178;8.186;2023-03-01T03:54:08;-3.10;99.90
21176;DHT22;10746;50.178;8.186;2023-03-01T03:56:36;-3.10;99.90
21176;DHT22;10746;50.178;8.186;2023-03-01T03:59:02;-3.10;99.90
21176;DHT22;10746;50.178;8.186;2023-03-01T04:01:31;-3.10;99.90
21176;DHT22;10746;50.178;8.186;2023-03-01T04:03:58;-3.10;99.90
21176;DHT22;10746;50.178;8.186;2023-03-01T04:06:29;-3.10;99.90
21176;DHT22;10746;50.178;8.186;2023-03-01T04:08:56;-3.10;99.90
21176;DHT22;10746;50.178;8.186;2023-03-01T04:11:26;-3.20;99.90
21176;DHT22;10746;50.178;8.186;2023-03-01T04:13:56;-3.20;99.90
21176;DHT22;10746;50.178;8.186;2023-03-01T04:16:24;-3.20;99.90
21176;DHT22;10746;50.178;8.186;2023-03-01T04:18:51;-3.20;99.90
21176;DHT22;10746;50.178;8.186;2023-03-01T04:21:20;-3.10;99.90
21176;DHT22;10746;50.178;8.186;2023-03-01T04:23:47;-3.10;99.90
21176;DHT22;10746;50.178;8.186;2023-03-01T04:26:13;-3.10;99.90
21176;DHT22;10746;50.178;8.186;2023-03-01T04:28:42;-3.10;99.90
21176;DHT22;10746;50.178;8.186;2023-03-01T04:31:12;-3.10;99.90
21176;DHT22;10746;50.178;8.186;2023-03-01T04:33:41;-3.10;99.90
21176;DHT22;10746;50.178;8.186;2023-03-01T04:36:09;-3.10;99.90
21176;DHT22;10746;50.178;8.186;2023-03-01T04:38:36;-3.20;99.90
21176;DHT22;10746;50.178;8.186;2023-03-01T04:41:04;-3.20;99.90
21176;DHT22;10746;50.178;8.186;2023-03-01T04:43:31;-3.20;99.90
21176;DHT22;10746;50.178;8.186;2023-03-01T04:46:01;-3.20;99.90
21176;DHT22;10746;50.178;8.186;2023-03-01T04:48:29;-3.20;99.90
21176;DHT22;10746;50.178;8.186;2023-03-01T04:50:57;-3.30;99.90
21176;DHT22;10746;50.178;8.186;2023-03-01T04:53:24;-3.30;99.90
21176;DHT22;10746;50.178;8.186;2023-03-01T04:55:51;-3.40;99.90
21176;DHT22;10746;50.178;8.186;2023-03-01T04:58:18;-3.30;99.90
21176;DHT22;10746;50.178;8.186;2023-03-01T05:00:44;-3.30;99.90
21176;DHT22;10746;50.178;8.186;2023-03-01T05:03:12;-3.20;99.90
21176;DHT22;10746;50.178;8.186;2023-03-01T05:05:44;-3.20;99.90
21176;DHT22;10746;50.178;8.186;2023-03-01T05:08:12;-3.20;99.90
21176;DHT22;10746;50.178;8.186;2023-03-01T05:10:43;-3.20;99.90
21176;DHT22;10746;50.178;8.186;2023-03-01T05:13:11;-3.30;99.90
21176;DHT22;10746;50.178;8.186;2023-03-01T05:15:40;-3.30;99.90
21176;DHT22;10746;50.178;8.186;2023-03-01T05:18:07;-3.30;99.90
21176;DHT22;10746;50.178;8.186;2023-03-01T05:20:38;-3.30;99.90
21176;DHT22;10746;50.178;8.186;2023-03-01T05:23:05;-3.30;99.90
21176;DHT22;10746;50.178;8.186;2023-03-01T05:25:33;-3.30;99.90
21176;DHT22;10746;50.178;8.186;2023-03-01T05:28:00;-3.30;99.90
21176;DHT22;10746;50.178;8.186;2023-03-01T05:30:30;-3.40;99.90
21176;DHT22;10746;50.178;8.186;2023-03-01T05:32:58;-3.40;99.90
21176;DHT22;10746;50.178;8.186;2023-03-01T05:35:25;-3.50;99.90
21176;DHT22;10746;50.178;8.186;2023-03-01T05:37:53;-3.50;99.90
21176;DHT22;10746;50.178;8.186;2023-03-01T05:40:21;-3.50;99.90
21176;DHT22;10746;50.178;8.186;2023-03-01T05:42:52;-3.60;99.90
21176;DHT22;10746;50.178;8.186;2023-03-01T05:45:18;-3.50;99.90
21176;DHT22;10746;50.178;8.186;2023-03-01T05:47:46;-3.50;99.90
21176;DHT22;10746;50.178;8.186;2023-03-01T05:50:15;-3.50;99.90
21176;DHT22;10746;50.178;8.186;2023-03-01T05:52:45;-3.50;99.90
21176;DHT22;10746;50.178;8.186;2023-03-01T05:55:13;-3.50;99.90
21176;DHT22;10746;50.178;8.186;2023-03-01T05:57:40;-3.50;99.90
21176;DHT22;10746;50.178;8.186;2023-03-01T06:00:08;-3.50;99.90
21176;DHT22;10746;50.178;8.186;2023-03-01T06:02:35;-3.50;99.90
21176;DHT22;10746;50.178;8.186;2023-03-01T06:05:03;-3.40;99.90
21176;DHT22;10746;50.178;8.186;2023-03-01T06:07:30;-3.40;99.90
21176;DHT22;10746;50.178;8.186;2023-03-01T06:09:57;-3.50;99.90
21176;DHT22;10746;50.178;8.186;2023-03-01T06:12:25;-3.50;99.90
21176;DHT22;10746;50.178;8.186;2023-03-01T06:14:52;-3.50;99.90
21176;DHT22;10746;50.178;8.186;2023-03-01T06:17:19;-3.50;99.90
21176;DHT22;10746;50.178;8.186;2023-03-01T06:19:46;-3.50;99.90
21176;DHT22;10746;50.178;8.186;2023-03-01T06:22:13;-3.60;99.90
21176;DHT22;10746;50.178;8.186;2023-03-01T06:24:40;-3.50;99.90
21176;DHT22;10746;50.178;8.186;2023-03-01T06:27:07;-3.50;99.90
21176;DHT22;10746;50.178;8.186;2023-03-01T06:29:35;-3.50;99.90
21176;DHT22;10746;50.178;8.186;2023-03-01T06:32:02;-3.40;99.90
21176;DHT22;10746;50.178;8.186;2023-03-01T06:34:29;-3.40;99.90
21176;DHT22;10746;50.178;8.186;2023-03-01T06:36:56;-3.30;99.90
21176;DHT22;10746;50.178;8.186;2023-03-01T06:39:22;-3.20;99.90
21176;DHT22;10746;50.178;8.186;2023-03-01T06:41:49;-3.10;99.90
21176;DHT22;10746;50.178;8.186;2023-03-01T06:44:16;-3.00;99.90
21176;DHT22;10746;50.178;8.186;2023-03-01T06:46:44;-3.00;99.90
21176;DHT22;10746;50.178;8.186;2023-03-01T06:49:11;-2.90;99.90
21176;DHT22;10746;50.178;8.186;2023-03-01T06:51:37;-2.90;99.90
21176;DHT22;10746;50.178;8.186;2023-03-01T06:54:04;-2.90;99.90
21176;DHT22;10746;50.178;8.186;2023-03-01T06:56:31;-2.80;99.90
21176;DHT22;10746;50.178;8.186;2023-03-01T06:58:58;-2.80;99.90
21176;DHT22;10746;50.178;8.186;2023-03-01T07:01:25;-2.60;99.90
21176;DHT22;10746;50.178;8.186;2023-03-01T07:03:53;-2.50;99.90
21176;DHT22;10746;50.178;8.186;2023-03-01T07:06:20;-2.50;99.90
21176;DHT22;10746;50.178;8.186;2023-03-01T07:08:47;-2.40;99.90
21176;DHT22;10746;50.178;8.186;2023-03-01T07:11:14;-2.40;99.90
21176;DHT22;10746;50.178;8.186;2023-03-01T07:13:41;-2.30;99.90
21176;DHT22;10746;50.178;8.186;2023-03-01T07:16:08;-2.20;99.90
21176;DHT22;10746;50.178;8.186;2023-03-01T07:18:35;-2.10;99.90
21176;DHT22;10746;50.178;8.186;2023-03-01T07:21:06;-2.00;99.90
21176;DHT22;10746;50.178;8.186;2023-03-01T07:23:33;-1.90;99.90
21176;DHT22;10746;50.178;8.186;2023-03-01T07:26:00;-1.60;99.90
21176;DHT22;10746;50.178;8.186;2023-03-01T07:28:27;-1.30;99.90
21176;DHT22;10746;50.178;8.186;2023-03-01T07:30:54;-1.10;99.90
21176;DHT22;10746;50.178;8.186;2023-03-01T07:33:21;-0.80;99.90
21176;DHT22;10746;50.178;8.186;2023-03-01T07:35:48;-0.50;99.90
21176;DHT22;10746;50.178;8.186;2023-03-01T07:38:16;-0.20;99.90
21176;DHT22;10746;50.178;8.186;2023-03-01T07:40:42;0.10;99.90
21176;DHT22;10746;50.178;8.186;2023-03-01T07:43:09;0.40;99.90
21176;DHT22;10746;50.178;8.186;2023-03-01T07:45:36;0.60;99.90
21176;DHT22;10746;50.178;8.186;2023-03-01T07:48:03;0.80;99.90
21176;DHT22;10746;50.178;8.186;2023-03-01T07:50:30;0.90;99.90
21176;DHT22;10746;50.178;8.186;2023-03-01T07:52:56;0.90;99.90
21176;DHT22;10746;50.178;8.186;2023-03-01T07:55:24;1.10;99.90
21176;DHT22;10746;50.178;8.186;2023-03-01T07:57:51;1.20;99.90
21176;DHT22;10746;50.178;8.186;2023-03-01T08:00:18;1.50;99.90
21176;DHT22;10746;50.178;8.186;2023-03-01T08:02:45;1.70;99.90
21176;DHT22;10746;50.178;8.186;2023-03-01T08:05:12;2.00;99.90
21176;DHT22;10746;50.178;8.186;2023-03-01T08:07:39;1.90;99.90
21176;DHT22;10746;50.178;8.186;2023-03-01T08:10:06;2.10;99.90
21176;DHT22;10746;50.178;8.186;2023-03-01T08:12:34;2.10;99.90
21176;DHT22;10746;50.178;8.186;2023-03-01T08:15:01;1.60;99.90
21176;DHT22;10746;50.178;8.186;2023-03-01T08:17:28;1.40;99.90
21176;DHT22;10746;50.178;8.186;2023-03-01T08:19:55;1.20;99.90
21176;DHT22;10746;50.178;8.186;2023-03-01T08:22:21;1.20;99.90
21176;DHT22;10746;50.178;8.186;2023-03-01T08:24:48;1.40;99.90
21176;DHT22;10746;50.178;8.186;2023-03-01T08:27:15;1.50;99.90
21176;DHT22;10746;50.178;8.186;2023-03-01T08:29:43;1.60;99.90
21176;DHT22;10746;50.178;8.186;2023-03-01T08:32:10;2.10;99.90
21176;DHT22;10746;50.178;8.186;2023-03-01T08:34:37;2.40;99.90
21176;DHT22;10746;50.178;8.186;2023-03-01T08:37:04;2.90;99.90
21176;DHT22;10746;50.178;8.186;2023-03-01T08:39:30;3.00;99.90
21176;DHT22;10746;50.178;8.186;2023-03-01T08:41:57;3.00;99.90
21176;DHT22;10746;50.178;8.186;2023-03-01T08:44:24;2.50;99.90
21176;DHT22;10746;50.178;8.186;2023-03-01T08:46:52;2.20;99.90
21176;DHT22;10746;50.178;8.186;2023-03-01T08:49:21;2.30;99.90
21176;DHT22;10746;50.178;8.186;2023-03-01T08:51:48;2.70;99.90
21176;DHT22;10746;50.178;8.186;2023-03-01T08:54:16;2.50;99.90
21176;DHT22;10746;50.178;8.186;2023-03-01T08:56:43;2.50;99.90
21176;DHT22;10746;50.178;8.186;2023-03-01T08:59:11;2.40;99.90
21176;DHT22;10746;50.178;8.186;2023-03-01T09:01:37;2.70;99.90
21176;DHT22;10746;50.178;8.186;2023-03-01T09:04:07;3.00;99.90
21176;DHT22;10746;50.178;8.186;2023-03-01T09:06:34;2.80;99.90
21176;DHT22;10746;50.178;8.186;2023-03-01T09:09:01;2.40;99.90
21176;DHT22;10746;50.178;8.186;2023-03-01T09:11:28;2.40;99.90
21176;DHT22;10746;50.178;8.186;2023-03-01T09:13:55;2.60;99.90
21176;DHT22;10746;50.178;8.186;2023-03-01T09:16:24;2.70;99.90
21176;DHT22;10746;50.178;8.186;2023-03-01T09:18:52;2.50;99.90
21176;DHT22;10746;50.178;8.186;2023-03-01T09:21:23;2.10;99.90
21176;DHT22;10746;50.178;8.186;2023-03-01T09:23:49;2.20;99.90
21176;DHT22;10746;50.178;8.186;2023-03-01T09:26:18;2.50;99.90
21176;DHT22;10746;50.178;8.186;2023-03-01T09:28:47;2.60;99.90
21176;DHT22;10746;50.178;8.186;2023-03-01T09:31:14;2.80;99.90
21176;DHT22;10746;50.178;8.186;2023-03-01T09:33:42;2.40;99.90
21176;DHT22;10746;50.178;8.186;2023-03-01T09:36:12;2.20;99.90
21176;DHT22;10746;50.178;8.186;2023-03-01T09:38:40;2.70;99.90
21176;DHT22;10746;50.178;8.186;2023-03-01T09:41:11;2.60;99.90
21176;DHT22;10746;50.178;8.186;2023-03-01T09:43:49;2.70;99.90
21176;DHT22;10746;50.178;8.186;2023-03-01T09:46:20;3.10;99.90
21176;DHT22;10746;50.178;8.186;2023-03-01T09:48:51;3.50;99.90
21176;DHT22;10746;50.178;8.186;2023-03-01T09:51:24;3.40;99.90
21176;DHT22;10746;50.178;8.186;2023-03-01T09:53:54;3.60;99.90
21176;DHT22;10746;50.178;8.186;2023-03-01T09:56:26;4.60;99.90
21176;DHT22;10746;50.178;8.186;2023-03-01T09:58:59;5.10;99.90
21176;DHT22;10746;50.178;8.186;2023-03-01T10:01:34;4.60;99.90
21176;DHT22;10746;50.178;8.186;2023-03-01T10:04:24;5.10;99.90
21176;DHT22;10746;50.178;8.186;2023-03-01T10:07:02;5.90;99.90
21176;DHT22;10746;50.178;8.186;2023-03-01T10:09:34;6.60;99.90
21176;DHT22;10746;50.178;8.186;2023-03-01T10:12:04;7.10;99.90
21176;DHT22;10746;50.178;8.186;2023-03-01T10:14:35;4.90;99.90
21176;DHT22;10746;50.178;8.186;2023-03-01T10:17:07;3.70;99.90
21176;DHT22;10746;50.178;8.186;2023-03-01T10:19:39;3.60;99.90
21176;DHT22;10746;50.178;8.186;2023-03-01T10:22:13;4.00;99.90
21176;DHT22;10746;50.178;8.186;2023-03-01T10:24:42;4.00;99.90
21176;DHT22;10746;50.178;8.186;2023-03-01T10:27:15;3.90;99.90
21176;DHT22;10746;50.178;8.186;2023-03-01T10:29:48;4.40;99.90
21176;DHT22;10746;50.178;8.186;2023-03-01T10:32:18;4.70;99.90
21176;DHT22;10746;50.178;8.186;2023-03-01T10:34:47;4.90;99.90
21176;DHT22;10746;50.178;8.186;2023-03-01T10:37:16;4.40;99.90
21176;DHT22;10746;50.178;8.186;2023-03-01T10:40:03;3.20;99.90
21176;DHT22;10746;50.178;8.186;2023-03-01T10:42:36;3.40;99.90
21176;DHT22;10746;50.178;8.186;2023-03-01T10:45:25;4.00;99.90
21176;DHT22;10746;50.178;8.186;2023-03-01T10:48:04;4.30;99.90
21176;DHT22;10746;50.178;8.186;2023-03-01T10:50:31;4.80;99.90
21176;DHT22;10746;50.178;8.186;2023-03-01T10:53:01;5.00;99.90
21176;DHT22;10746;50.178;8.186;2023-03-01T10:55:33;4.70;99.90
21176;DHT22;10746;50.178;8.186;2023-03-01T10:58:11;4.80;99.90
21176;DHT22;10746;50.178;8.186;2023-03-01T11:00:47;5.00;99.90
21176;DHT22;10746;50.178;8.186;2023-03-01T11:03:18;5.60;99.90
21176;DHT22;10746;50.178;8.186;2023-03-01T11:05:54;6.60;99.90
21176;DHT22;10746;50.178;8.186;2023-03-01T11:08:39;6.20;99.90
21176;DHT22;10746;50.178;8.186;2023-03-01T11:11:24;6.20;99.90
21176;DHT22;10746;50.178;8.186;2023-03-01T11:13:55;6.10;99.90
21176;DHT22;10746;50.178;8.186;2023-03-01T11:16:25;6.60;99.90
21176;DHT22;10746;50.178;8.186;2023-03-01T11:19:15;6.80;99.90
21176;DHT22;10746;50.178;8.186;2023-03-01T11:21:50;7.30;99.90
21176;DHT22;10746;50.178;8.186;2023-03-01T11:24:19;6.20;99.90
21176;DHT22;10746;50.178;8.186;2023-03-01T11:26:53;5.90;99.90
21176;DHT22;10746;50.178;8.186;2023-03-01T11:29:27;6.40;99.90
21176;DHT22;10746;50.178;8.186;2023-03-01T11:31:59;7.00;99.90
21176;DHT22;10746;50.178;8.186;2023-03-01T11:34:36;7.90;99.90
21176;DHT22;10746;50.178;8.186;2023-03-01T11:37:16;8.60;99.90
21176;DHT22;10746;50.178;8.186;2023-03-01T11:39:54;7.40;99.90
21176;DHT22;10746;50.178;8.186;2023-03-01T11:42:31;6.10;99.90
21176;DHT22;10746;50.178;8.186;2023-03-01T11:45:08;6.00;99.90
21176;DHT22;10746;50.178;8.186;2023-03-01T11:47:47;7.10;99.90
21176;DHT22;10746;50.178;8.186;2023-03-01T11:50:26;7.90;99.90
21176;DHT22;10746;50.178;8.186;2023-03-01T11:53:07;8.50;99.90
21176;DHT22;10746;50.178;8.186;2023-03-01T11:55:51;7.90;99.90
21176;DHT22;10746;50.178;8.186;2023-03-01T11:58:31;8.70;99.90
21176;DHT22;10746;50.178;8.186;2023-03-01T12:01:19;9.00;99.90
21176;DHT22;10746;50.178;8.186;2023-03-01T12:06:52;8.30;99.90
21176;DHT22;10746;50.178;8.186;2023-03-01T12:09:34;9.10;99.90
21176;DHT22;10746;50.178;8.186;2023-03-01T12:12:17;9.50;99.90
21176;DHT22;10746;50.178;8.186;2023-03-01T12:14:59;9.60;99.90
21176;DHT22;10746;50.178;8.186;2023-03-01T12:17:45;9.90;99.90
21176;DHT22;10746;50.178;8.186;2023-03-01T12:20:24;9.40;99.90
21176;DHT22;10746;50.178;8.186;2023-03-01T12:23:17;9.10;99.90
21176;DHT22;10746;50.178;8.186;2023-03-01T12:25:49;9.20;99.90
21176;DHT22;10746;50.178;8.186;2023-03-01T12:28:31;9.60;99.90
21176;DHT22;10746;50.178;8.186;2023-03-01T12:31:31;10.20;99.90
21176;DHT22;10746;50.178;8.186;2023-03-01T12:34:06;10.60;99.90
21176;DHT22;10746;50.178;8.186;2023-03-01T12:36:44;10.60;99.90
21176;DHT22;10746;50.178;8.186;2023-03-01T12:39:34;9.80;99.90
21176;DHT22;10746;50.178;8.186;2023-03-01T12:42:10;10.00;99.90
21176;DHT22;10746;50.178;8.186;2023-03-01T12:44:53;8.70;99.90
21176;DHT22;10746;50.178;8.186;2023-03-01T12:47:51;8.40;99.90
21176;DHT22;10746;50.178;8.186;2023-03-01T12:50:24;8.30;99.90
21176;DHT22;10746;50.178;8.186;2023-03-01T12:52:54;8.00;99.90
21176;DHT22;10746;50.178;8.186;2023-03-01T12:55:29;8.60;99.90
21176;DHT22;10746;50.178;8.186;2023-03-01T12:58:05;9.00;99.90
21176;DHT22;10746;50.178;8.186;2023-03-01T13:00:39;9.10;99.90
21176;DHT22;10746;50.178;8.186;2023-03-01T13:03:18;8.70;99.90
21176;DHT22;10746;50.178;8.186;2023-03-01T13:05:56;9.30;99.90
21176;DHT22;10746;50.178;8.186;2023-03-01T13:08:31;9.70;99.90
21176;DHT22;10746;50.178;8.186;2023-03-01T13:11:00;10.50;99.90
21176;DHT22;10746;50.178;8.186;2023-03-01T13:13:28;10.40;99.90
21176;DHT22;10746;50.178;8.186;2023-03-01T13:15:55;10.40;99.90
21176;DHT22;10746;50.178;8.186;2023-03-01T13:18:33;11.00;99.90
21176;DHT22;10746;50.178;8.186;2023-03-01T13:21:04;11.20;99.90
21176;DHT22;10746;50.178;8.186;2023-03-01T13:23:34;11.50;99.90
21176;DHT22;10746;50.178;8.186;2023-03-01T13:26:07;11.60;99.90
21176;DHT22;10746;50.178;8.186;2023-03-01T13:28:53;9.70;99.90
21176;DHT22;10746;50.178;8.186;2023-03-01T13:34:57;9.90;99.90
21176;DHT22;10746;50.178;8.186;2023-03-01T13:37:30;9.80;99.90
21176;DHT22;10746;50.178;8.186;2023-03-01T13:39:59;10.40;99.90
21176;DHT22;10746;50.178;8.186;2023-03-01T13:42:41;11.00;99.90
21176;DHT22;10746;50.178;8.186;2023-03-01T13:45:24;10.90;99.90
21176;DHT22;10746;50.178;8.186;2023-03-01T13:47:58;10.60;99.90
21176;DHT22;10746;50.178;8.186;2023-03-01T13:50:29;10.10;99.90
21176;DHT22;10746;50.178;8.186;2023-03-01T13:52:59;10.40;99.90
21176;DHT22;10746;50.178;8.186;2023-03-01T13:55:32;10.60;99.90
21176;DHT22;10746;50.178;8.186;2023-03-01T13:58:05;10.20;99.90
21176;DHT22;10746;50.178;8.186;2023-03-01T14:00:40;10.10;99.90
21176;DHT22;10746;50.178;8.186;2023-03-01T14:03:13;10.10;99.90
21176;DHT22;10746;50.178;8.186;2023-03-01T14:05:42;10.30;99.90
21176;DHT22;10746;50.178;8.186;2023-03-01T14:08:20;9.70;99.90
21176;DHT22;10746;50.178;8.186;2023-03-01T14:13:51;8.10;99.90
21176;DHT22;10746;50.178;8.186;2023-03-01T14:16:32;7.30;99.90
21176;DHT22;10746;50.178;8.186;2023-03-01T14:19:12;6.30;99.90
21176;DHT22;10746;50.178;8.186;2023-03-01T14:21:43;6.00;99.90
21176;DHT22;10746;50.178;8.186;2023-03-01T14:24:17;5.90;99.90
21176;DHT22;10746;50.178;8.186;2023-03-01T14:26:45;5.80;99.90
21176;DHT22;10746;50.178;8.186;2023-03-01T14:29:24;6.00;99.90
21176;DHT22;10746;50.178;8.186;2023-03-01T14:31:51;6.60;99.90
21176;DHT22;10746;50.178;8.186;2023-03-01T14:34:20;7.70;99.90
21176;DHT22;10746;50.178;8.186;2023-03-01T14:36:48;8.50;99.90
21176;DHT22;10746;50.178;8.186;2023-03-01T14:39:22;8.80;99.90
21176;DHT22;10746;50.178;8.186;2023-03-01T14:41:51;8.80;99.90
21176;DHT22;10746;50.178;8.186;2023-03-01T14:44:21;8.30;99.90
21176;DHT22;10746;50.178;8.186;2023-03-01T14:46:52;7.50;99.90
21176;DHT22;10746;50.178;8.186;2023-03-01T14:49:23;6.90;99.90
21176;DHT22;10746;50.178;8.186;2023-03-01T14:51:57;6.40;99.90
21176;DHT22;10746;50.178;8.186;2023-03-01T14:54:26;5.90;99.90
21176;DHT22;10746;50.178;8.186;2023-03-01T14:56:58;5.70;99.90
21176;DHT22;10746;50.178;8.186;2023-03-01T14:59:25;5.50;99.90
21176;DHT22;10746;50.178;8.186;2023-03-01T15:01:54;5.30;99.90
21176;DHT22;10746;50.178;8.186;2023-03-01T15:04:22;5.20;99.90
21176;DHT22;10746;50.178;8.186;2023-03-01T15:06:51;5.10;99.90
21176;DHT22;10746;50.178;8.186;2023-03-01T15:09:19;5.10;99.90
21176;DHT22;10746;50.178;8.186;2023-03-01T15:11:47;5.00;99.90
21176;DHT22;10746;50.178;8.186;2023-03-01T15:14:29;4.90;99.90
21176;DHT22;10746;50.178;8.186;2023-03-01T15:17:04;4.80;99.90
21176;DHT22;10746;50.178;8.186;2023-03-01T15:19:31;4.80;99.90
21176;DHT22;10746;50.178;8.186;2023-03-01T15:21:58;4.90;99.90
21176;DHT22;10746;50.178;8.186;2023-03-01T15:24:38;4.90;99.90
21176;DHT22;10746;50.178;8.186;2023-03-01T15:27:13;4.80;99.90
21176;DHT22;10746;50.178;8.186;2023-03-01T15:29:48;4.80;99.90
21176;DHT22;10746;50.178;8.186;2023-03-01T15:32:28;4.70;99.90
21176;DHT22;10746;50.178;8.186;2023-03-01T15:34:55;4.80;99.90
21176;DHT22;10746;50.178;8.186;2023-03-01T15:37:40;4.70;99.90
21176;DHT22;10746;50.178;8.186;2023-03-01T15:40:20;4.70;99.90
21176;DHT22;10746;50.178;8.186;2023-03-01T15:42:50;4.70;99.90
21176;DHT22;10746;50.178;8.186;2023-03-01T15:45:25;4.70;99.90
21176;DHT22;10746;50.178;8.186;2023-03-01T15:47:54;4.70;99.90
21176;DHT22;10746;50.178;8.186;2023-03-01T15:50:25;4.60;99.90
21176;DHT22;10746;50.178;8.186;2023-03-01T15:52:53;4.60;99.90
21176;DHT22;10746;50.178;8.186;2023-03-01T15:55:23;4.60;99.90
21176;DHT22;10746;50.178;8.186;2023-03-01T15:57:58;4.50;99.90
21176;DHT22;10746;50.178;8.186;2023-03-01T16:00:27;4.50;99.90
21176;DHT22;10746;50.178;8.186;2023-03-01T16:02:54;4.40;99.90
21176;DHT22;10746;50.178;8.186;2023-03-01T16:05:22;4.40;99.90
21176;DHT22;10746;50.178;8.186;2023-03-01T16:07:49;4.40;99.90